sensor_id;sensor_type;location;lat;lon;timestamp;P1;durP1;ratioP1;P2;durP2;ratioP2
76807;SDS011;65758;45.458;11.062;2024-03-02T00:00:39;8.30;;;2.10;;
76807;SDS011;65758;45.458;11.062;2024-03-02T00:03:07;6.70;;;2.00;;
76807;SDS011;65758;45.458;11.062;2024-03-02T00:05:36;6.20;;;2.10;;
76807;SDS011;65758;45.458;11.062;2024-03-02T00:08:03;6.20;;;1.70;;
76807;SDS011;65758;45.458;11.062;2024-03-02T00:13:22;6.00;;;1.80;;
76807;SDS011;65758;45.458;11.062;2024-03-02T00:15:53;2.70;;;1.60;;
76807;SDS011;65758;45.458;11.062;2024-03-02T00:20:59;6.10;;;1.50;;
76807;SDS011;65758;45.458;11.062;2024-03-02T00:23:27;4.00;;;1.60;;
76807;SDS011;65758;45.458;11.062;2024-03-02T00:25:57;5.10;;;1.50;;
76807;SDS011;65758;45.458;11.062;2024-03-02T00:28:27;3.60;;;1.30;;
76807;SDS011;65758;45.458;11.062;2024-03-02T00:31:07;6.90;;;1.70;;
76807;SDS011;65758;45.458;11.062;2024-03-02T00:33:36;3.40;;;1.40;;
76807;SDS011;65758;45.458;11.062;2024-03-02T00:36:05;6.50;;;2.80;;
76807;SDS011;65758;45.458;11.062;2024-03-02T00:38:33;3.70;;;1.30;;
76807;SDS011;65758;45.458;11.062;2024-03-02T00:41:05;3.60;;;1.20;;
76807;SDS011;65758;45.458;11.062;2024-03-02T00:46:02;5.20;;;2.60;;
76807;SDS011;65758;45.458;11.062;2024-03-02T00:48:29;3.00;;;1.10;;
76807;SDS011;65758;45.458;11.062;2024-03-02T00:50:58;2.70;;;1.10;;
76807;SDS011;65758;45.458;11.062;2024-03-02T00:53:25;4.00;;;1.30;;
76807;SDS011;65758;45.458;11.062;2024-03-02T00:55:52;1.50;;;1.00;;
76807;SDS011;65758;45.458;11.062;2024-03-02T00:58:19;3.80;;;1.50;;
76807;SDS011;65758;45.458;11.062;2024-03-02T01:00:46;5.40;;;1.60;;
76807;SDS011;65758;45.458;11.062;2024-03-02T01:03:13;5.90;;;1.20;;
76807;SDS011;65758;45.458;11.062;2024-03-02T01:05:43;2.00;;;1.30;;
76807;SDS011;65758;45.458;11.062;2024-03-02T01:08:10;3.20;;;1.00;;
76807;SDS011;65758;45.458;11.062;2024-03-02T01:10:37;4.10;;;1.90;;
76807;SDS011;65758;45.458;11.062;2024-03-02T01:13:04;2.90;;;1.20;;
76807;SDS011;65758;45.458;11.062;2024-03-02T01:15:31;1.70;;;1.20;;
76807;SDS011;65758;45.458;11.062;2024-03-02T01:17:58;3.20;;;1.30;;
76807;SDS011;65758;45.458;11.062;2024-03-02T01:20:25;4.20;;;1.20;;
76807;SDS011;65758;45.458;11.062;2024-03-02T01:22:52;4.20;;;1.10;;
76807;SDS011;65758;45.458;11.062;2024-03-02T01:25:19;3.70;;;1.20;;
76807;SDS011;65758;45.458;11.062;2024-03-02T01:27:46;4.70;;;1.40;;
76807;SDS011;65758;45.458;11.062;2024-03-02T01:30:16;4.70;;;1.10;;
76807;SDS011;65758;45.458;11.062;2024-03-02T01:32:43;1.90;;;1.10;;
76807;SDS011;65758;45.458;11.062;2024-03-02T01:35:10;3.90;;;1.20;;
76807;SDS011;65758;45.458;11.062;2024-03-02T01:37:36;6.10;;;1.50;;
76807;SDS011;65758;45.458;11.062;2024-03-02T01:40:03;1.30;;;1.10;;
76807;SDS011;65758;45.458;11.062;2024-03-02T01:42:39;2.30;;;1.10;;
76807;SDS011;65758;45.458;11.062;2024-03-02T01:45:06;0.90;;;0.80;;
76807;SDS011;65758;45.458;11.062;2024-03-02T01:47:34;5.40;;;1.20;;
76807;SDS011;65758;45.458;11.062;2024-03-02T01:50:02;1.90;;;0.70;;
76807;SDS011;65758;45.458;11.062;2024-03-02T01:52:28;4.40;;;1.00;;
76807;SDS011;65758;45.458;11.062;2024-03-02T01:54:56;1.30;;;0.40;;
76807;SDS011;65758;45.458;11.062;2024-03-02T01:57:23;1.20;;;0.90;;
76807;SDS011;65758;45.458;11.062;2024-03-02T01:59:50;2.80;;;1.00;;
76807;SDS011;65758;45.458;11.062;2024-03-02T02:02:17;3.40;;;0.80;;
76807;SDS011;65758;45.458;11.062;2024-03-02T02:04:44;3.00;;;0.90;;
76807;SDS011;65758;45.458;11.062;2024-03-02T02:07:11;2.60;;;1.00;;
76807;SDS011;65758;45.458;11.062;2024-03-02T02:09:38;3.40;;;1.20;;
76807;SDS011;65758;45.458;11.062;2024-03-02T02:12:05;2.50;;;0.90;;
76807;SDS011;65758;45.458;11.062;2024-03-02T02:14:33;1.20;;;0.90;;
76807;SDS011;65758;45.458;11.062;2024-03-02T02:17:00;4.90;;;1.30;;
76807;SDS011;65758;45.458;11.062;2024-03-02T02:19:27;4.60;;;1.20;;
76807;SDS011;65758;45.458;11.062;2024-03-02T02:21:54;2.00;;;0.90;;
76807;SDS011;65758;45.458;11.062;2024-03-02T02:24:22;1.30;;;0.80;;
76807;SDS011;65758;45.458;11.062;2024-03-02T02:26:48;1.90;;;0.80;;
76807;SDS011;65758;45.458;11.062;2024-03-02T02:29:15;4.60;;;0.90;;
76807;SDS011;65758;45.458;11.062;2024-03-02T02:31:42;4.20;;;1.00;;
76807;SDS011;65758;45.458;11.062;2024-03-02T02:34:09;6.10;;;1.20;;
76807;SDS011;65758;45.458;11.062;2024-03-02T02:36:37;1.20;;;0.60;;
76807;SDS011;65758;45.458;11.062;2024-03-02T02:39:09;2.30;;;0.90;;
76807;SDS011;65758;45.458;11.062;2024-03-02T02:41:40;0.90;;;0.90;;
76807;SDS011;65758;45.458;11.062;2024-03-02T02:44:06;6.20;;;1.40;;
76807;SDS011;65758;45.458;11.062;2024-03-02T02:46:33;4.10;;;1.40;;
76807;SDS011;65758;45.458;11.062;2024-03-02T02:49:00;2.60;;;0.80;;
76807;SDS011;65758;45.458;11.062;2024-03-02T02:51:27;1.60;;;1.00;;
76807;SDS011;65758;45.458;11.062;2024-03-02T02:53:54;7.10;;;1.40;;
76807;SDS011;65758;45.458;11.062;2024-03-02T02:56:21;3.90;;;1.20;;
76807;SDS011;65758;45.458;11.062;2024-03-02T02:58:47;4.70;;;1.30;;
76807;SDS011;65758;45.458;11.062;2024-03-02T03:01:15;3.20;;;1.30;;
76807;SDS011;65758;45.458;11.062;2024-03-02T03:03:45;3.00;;;1.10;;
76807;SDS011;65758;45.458;11.062;2024-03-02T03:06:12;5.50;;;1.30;;
76807;SDS011;65758;45.458;11.062;2024-03-02T03:08:39;2.10;;;0.90;;
76807;SDS011;65758;45.458;11.062;2024-03-02T03:11:06;4.00;;;0.90;;
76807;SDS011;65758;45.458;11.062;2024-03-02T03:13:34;3.90;;;1.20;;
76807;SDS011;65758;45.458;11.062;2024-03-02T03:16:01;6.80;;;1.20;;
76807;SDS011;65758;45.458;11.062;2024-03-02T03:18:28;4.40;;;1.40;;
76807;SDS011;65758;45.458;11.062;2024-03-02T03:20:55;7.80;;;1.20;;
76807;SDS011;65758;45.458;11.062;2024-03-02T03:23:22;3.10;;;0.90;;
76807;SDS011;65758;45.458;11.062;2024-03-02T03:25:49;2.80;;;1.00;;
76807;SDS011;65758;45.458;11.062;2024-03-02T03:28:16;4.40;;;1.30;;
76807;SDS011;65758;45.458;11.062;2024-03-02T03:30:42;3.70;;;1.20;;
76807;SDS011;65758;45.458;11.062;2024-03-02T03:33:09;4.60;;;1.20;;
76807;SDS011;65758;45.458;11.062;2024-03-02T03:35:36;3.60;;;1.00;;
76807;SDS011;65758;45.458;11.062;2024-03-02T03:38:04;2.50;;;1.30;;
76807;SDS011;65758;45.458;11.062;2024-03-02T03:40:30;5.60;;;0.80;;
76807;SDS011;65758;45.458;11.062;2024-03-02T03:42:57;4.70;;;1.10;;
76807;SDS011;65758;45.458;11.062;2024-03-02T03:45:24;2.10;;;1.40;;
76807;SDS011;65758;45.458;11.062;2024-03-02T03:47:53;4.10;;;1.00;;
76807;SDS011;65758;45.458;11.062;2024-03-02T03:50:21;4.60;;;1.30;;
76807;SDS011;65758;45.458;11.062;2024-03-02T03:52:48;5.70;;;1.30;;
76807;SDS011;65758;45.458;11.062;2024-03-02T03:55:15;3.80;;;1.20;;
76807;SDS011;65758;45.458;11.062;2024-03-02T03:57:42;2.50;;;1.00;;
76807;SDS011;65758;45.458;11.062;2024-03-02T04:00:09;6.00;;;1.20;;
76807;SDS011;65758;45.458;11.062;2024-03-02T04:02:40;5.90;;;1.30;;
76807;SDS011;65758;45.458;11.062;2024-03-02T04:05:07;4.10;;;1.20;;
76807;SDS011;65758;45.458;11.062;2024-03-02T04:07:38;3.30;;;1.10;;
76807;SDS011;65758;45.458;11.062;2024-03-02T04:10:07;5.90;;;1.60;;
76807;SDS011;65758;45.458;11.062;2024-03-02T04:12:36;4.70;;;1.40;;
76807;SDS011;65758;45.458;11.062;2024-03-02T04:15:06;2.00;;;0.80;;
76807;SDS011;65758;45.458;11.062;2024-03-02T04:17:33;5.70;;;1.20;;
76807;SDS011;65758;45.458;11.062;2024-03-02T04:20:02;9.40;;;1.30;;
76807;SDS011;65758;45.458;11.062;2024-03-02T04:22:32;2.90;;;1.10;;
76807;SDS011;65758;45.458;11.062;2024-03-02T04:25:00;3.40;;;1.20;;
76807;SDS011;65758;45.458;11.062;2024-03-02T04:27:27;4.50;;;2.00;;
76807;SDS011;65758;45.458;11.062;2024-03-02T04:29:54;2.80;;;1.40;;
76807;SDS011;65758;45.458;11.062;2024-03-02T04:32:21;6.30;;;1.50;;
76807;SDS011;65758;45.458;11.062;2024-03-02T04:34:48;3.70;;;1.50;;
76807;SDS011;65758;45.458;11.062;2024-03-02T04:37:15;5.70;;;1.50;;
76807;SDS011;65758;45.458;11.062;2024-03-02T04:39:41;4.10;;;2.50;;
76807;SDS011;65758;45.458;11.062;2024-03-02T04:42:08;5.20;;;1.30;;
76807;SDS011;65758;45.458;11.062;2024-03-02T04:44:35;5.40;;;2.00;;
76807;SDS011;65758;45.458;11.062;2024-03-02T04:47:03;5.00;;;1.60;;
76807;SDS011;65758;45.458;11.062;2024-03-02T04:49:31;5.00;;;1.30;;
76807;SDS011;65758;45.458;11.062;2024-03-02T04:51:58;4.70;;;1.50;;
76807;SDS011;65758;45.458;11.062;2024-03-02T04:54:25;4.00;;;2.60;;
76807;SDS011;65758;45.458;11.062;2024-03-02T04:56:52;5.10;;;1.50;;
76807;SDS011;65758;45.458;11.062;2024-03-02T04:59:18;3.60;;;1.20;;
76807;SDS011;65758;45.458;11.062;2024-03-02T05:01:45;4.20;;;1.20;;
76807;SDS011;65758;45.458;11.062;2024-03-02T05:04:14;4.90;;;1.30;;
76807;SDS011;65758;45.458;11.062;2024-03-02T05:06:41;4.00;;;2.20;;
76807;SDS011;65758;45.458;11.062;2024-03-02T05:09:08;5.40;;;1.50;;
76807;SDS011;65758;45.458;11.062;2024-03-02T05:11:35;4.50;;;1.60;;
76807;SDS011;65758;45.458;11.062;2024-03-02T05:14:22;6.40;;;1.50;;
76807;SDS011;65758;45.458;11.062;2024-03-02T05:16:49;3.10;;;1.30;;
76807;SDS011;65758;45.458;11.062;2024-03-02T05:19:16;3.20;;;1.00;;
76807;SDS011;65758;45.458;11.062;2024-03-02T05:21:43;0.90;;;0.80;;
76807;SDS011;65758;45.458;11.062;2024-03-02T05:24:10;4.70;;;1.40;;
76807;SDS011;65758;45.458;11.062;2024-03-02T05:26:37;5.50;;;1.30;;
76807;SDS011;65758;45.458;11.062;2024-03-02T05:29:03;4.70;;;1.40;;
76807;SDS011;65758;45.458;11.062;2024-03-02T05:31:30;4.00;;;1.10;;
76807;SDS011;65758;45.458;11.062;2024-03-02T05:33:57;2.60;;;1.50;;
76807;SDS011;65758;45.458;11.062;2024-03-02T05:36:24;5.40;;;1.60;;
76807;SDS011;65758;45.458;11.062;2024-03-02T05:38:51;2.60;;;0.90;;
76807;SDS011;65758;45.458;11.062;2024-03-02T05:41:18;6.20;;;1.10;;
76807;SDS011;65758;45.458;11.062;2024-03-02T05:43:45;2.10;;;0.90;;
76807;SDS011;65758;45.458;11.062;2024-03-02T05:46:12;3.90;;;1.10;;
76807;SDS011;65758;45.458;11.062;2024-03-02T05:48:39;3.00;;;1.10;;
76807;SDS011;65758;45.458;11.062;2024-03-02T05:51:06;3.40;;;1.10;;
76807;SDS011;65758;45.458;11.062;2024-03-02T05:53:32;2.30;;;0.90;;
76807;SDS011;65758;45.458;11.062;2024-03-02T05:56:00;1.60;;;1.00;;
76807;SDS011;65758;45.458;11.062;2024-03-02T05:58:30;3.30;;;2.10;;
76807;SDS011;65758;45.458;11.062;2024-03-02T06:01:09;5.00;;;1.40;;
76807;SDS011;65758;45.458;11.062;2024-03-02T06:03:36;3.50;;;1.30;;
76807;SDS011;65758;45.458;11.062;2024-03-02T06:06:03;3.40;;;1.30;;
76807;SDS011;65758;45.458;11.062;2024-03-02T06:08:30;4.30;;;2.00;;
76807;SDS011;65758;45.458;11.062;2024-03-02T06:10:57;4.70;;;1.40;;
76807;SDS011;65758;45.458;11.062;2024-03-02T06:13:24;4.80;;;1.40;;
76807;SDS011;65758;45.458;11.062;2024-03-02T06:15:53;3.60;;;1.20;;
76807;SDS011;65758;45.458;11.062;2024-03-02T06:18:20;3.30;;;1.40;;
76807;SDS011;65758;45.458;11.062;2024-03-02T06:20:46;2.00;;;1.00;;
76807;SDS011;65758;45.458;11.062;2024-03-02T06:23:13;2.40;;;0.90;;
76807;SDS011;65758;45.458;11.062;2024-03-02T06:25:40;2.30;;;1.10;;
76807;SDS011;65758;45.458;11.062;2024-03-02T06:28:07;3.80;;;1.30;;
76807;SDS011;65758;45.458;11.062;2024-03-02T06:30:34;4.30;;;1.30;;
76807;SDS011;65758;45.458;11.062;2024-03-02T06:33:00;6.60;;;1.40;;
76807;SDS011;65758;45.458;11.062;2024-03-02T06:35:27;2.50;;;1.20;;
76807;SDS011;65758;45.458;11.062;2024-03-02T06:37:54;2.60;;;1.00;;
76807;SDS011;65758;45.458;11.062;2024-03-02T06:40:21;3.30;;;1.30;;
76807;SDS011;65758;45.458;11.062;2024-03-02T06:42:48;4.70;;;1.60;;
76807;SDS011;65758;45.458;11.062;2024-03-02T06:45:15;4.30;;;1.40;;
76807;SDS011;65758;45.458;11.062;2024-03-02T06:47:42;6.90;;;2.30;;
76807;SDS011;65758;45.458;11.062;2024-03-02T06:50:09;6.20;;;1.40;;
76807;SDS011;65758;45.458;11.062;2024-03-02T06:52:36;2.50;;;1.10;;
76807;SDS011;65758;45.458;11.062;2024-03-02T06:55:03;4.50;;;1.20;;
76807;SDS011;65758;45.458;11.062;2024-03-02T06:57:30;6.40;;;1.20;;
76807;SDS011;65758;45.458;11.062;2024-03-02T06:59:57;3.80;;;1.20;;
76807;SDS011;65758;45.458;11.062;2024-03-02T07:02:25;2.30;;;1.20;;
76807;SDS011;65758;45.458;11.062;2024-03-02T07:04:53;9.70;;;2.10;;
76807;SDS011;65758;45.458;11.062;2024-03-02T07:07:20;4.90;;;1.20;;
76807;SDS011;65758;45.458;11.062;2024-03-02T07:09:47;9.50;;;2.30;;
76807;SDS011;65758;45.458;11.062;2024-03-02T07:12:14;2.80;;;1.00;;
76807;SDS011;65758;45.458;11.062;2024-03-02T07:14:41;1.60;;;0.90;;
76807;SDS011;65758;45.458;11.062;2024-03-02T07:17:27;1.50;;;0.80;;
76807;SDS011;65758;45.458;11.062;2024-03-02T07:19:54;4.10;;;1.00;;
76807;SDS011;65758;45.458;11.062;2024-03-02T07:22:21;4.30;;;1.00;;
76807;SDS011;65758;45.458;11.062;2024-03-02T07:24:49;4.50;;;1.50;;
76807;SDS011;65758;45.458;11.062;2024-03-02T07:27:17;2.00;;;1.20;;
76807;SDS011;65758;45.458;11.062;2024-03-02T07:29:44;2.10;;;1.00;;
76807;SDS011;65758;45.458;11.062;2024-03-02T07:32:11;4.40;;;1.00;;
76807;SDS011;65758;45.458;11.062;2024-03-02T07:34:38;2.50;;;0.70;;
76807;SDS011;65758;45.458;11.062;2024-03-02T07:37:04;2.70;;;0.80;;
76807;SDS011;65758;45.458;11.062;2024-03-02T07:39:32;3.00;;;0.90;;
76807;SDS011;65758;45.458;11.062;2024-03-02T07:42:00;2.60;;;1.00;;
76807;SDS011;65758;45.458;11.062;2024-03-02T07:44:27;1.30;;;0.80;;
76807;SDS011;65758;45.458;11.062;2024-03-02T07:46:54;5.00;;;1.60;;
76807;SDS011;65758;45.458;11.062;2024-03-02T07:49:20;2.60;;;0.90;;
76807;SDS011;65758;45.458;11.062;2024-03-02T07:51:47;1.90;;;0.80;;
76807;SDS011;65758;45.458;11.062;2024-03-02T07:54:14;1.40;;;0.80;;
76807;SDS011;65758;45.458;11.062;2024-03-02T07:56:41;2.70;;;1.20;;
76807;SDS011;65758;45.458;11.062;2024-03-02T07:59:08;1.60;;;0.90;;
76807;SDS011;65758;45.458;11.062;2024-03-02T08:01:35;0.90;;;0.80;;
76807;SDS011;65758;45.458;11.062;2024-03-02T08:04:02;1.10;;;0.90;;
76807;SDS011;65758;45.458;11.062;2024-03-02T08:06:30;1.10;;;1.00;;
76807;SDS011;65758;45.458;11.062;2024-03-02T08:08:58;2.40;;;0.90;;
76807;SDS011;65758;45.458;11.062;2024-03-02T08:11:26;2.90;;;1.00;;
76807;SDS011;65758;45.458;11.062;2024-03-02T08:13:53;2.20;;;1.00;;
76807;SDS011;65758;45.458;11.062;2024-03-02T08:16:22;2.70;;;0.90;;
76807;SDS011;65758;45.458;11.062;2024-03-02T08:18:50;1.70;;;1.00;;
76807;SDS011;65758;45.458;11.062;2024-03-02T08:21:17;1.60;;;0.80;;
76807;SDS011;65758;45.458;11.062;2024-03-02T08:23:45;3.00;;;1.70;;
76807;SDS011;65758;45.458;11.062;2024-03-02T08:26:12;2.90;;;1.10;;
76807;SDS011;65758;45.458;11.062;2024-03-02T08:28:39;2.80;;;0.90;;
76807;SDS011;65758;45.458;11.062;2024-03-02T08:31:07;1.80;;;1.10;;
76807;SDS011;65758;45.458;11.062;2024-03-02T08:33:34;2.40;;;1.00;;
76807;SDS011;65758;45.458;11.062;2024-03-02T08:36:04;2.50;;;1.00;;
76807;SDS011;65758;45.458;11.062;2024-03-02T08:38:32;1.40;;;1.10;;
76807;SDS011;65758;45.458;11.062;2024-03-02T08:40:59;1.20;;;1.10;;
76807;SDS011;65758;45.458;11.062;2024-03-02T08:43:26;2.20;;;0.90;;
76807;SDS011;65758;45.458;11.062;2024-03-02T08:45:53;1.00;;;1.00;;
76807;SDS011;65758;45.458;11.062;2024-03-02T08:48:20;2.70;;;1.20;;
76807;SDS011;65758;45.458;11.062;2024-03-02T08:50:47;2.00;;;1.30;;
76807;SDS011;65758;45.458;11.062;2024-03-02T08:53:14;2.40;;;1.00;;
76807;SDS011;65758;45.458;11.062;2024-03-02T08:55:45;3.60;;;1.10;;
76807;SDS011;65758;45.458;11.062;2024-03-02T08:58:12;2.60;;;0.90;;
76807;SDS011;65758;45.458;11.062;2024-03-02T09:00:40;4.30;;;1.00;;
76807;SDS011;65758;45.458;11.062;2024-03-02T09:03:07;1.50;;;1.10;;
76807;SDS011;65758;45.458;11.062;2024-03-02T09:05:34;2.80;;;0.80;;
76807;SDS011;65758;45.458;11.062;2024-03-02T09:08:01;1.80;;;1.60;;
76807;SDS011;65758;45.458;11.062;2024-03-02T09:10:30;2.50;;;1.10;;
76807;SDS011;65758;45.458;11.062;2024-03-02T09:12:57;2.50;;;1.00;;
76807;SDS011;65758;45.458;11.062;2024-03-02T09:15:25;2.10;;;1.10;;
76807;SDS011;65758;45.458;11.062;2024-03-02T09:17:52;2.90;;;1.10;;
76807;SDS011;65758;45.458;11.062;2024-03-02T09:20:19;1.80;;;1.10;;
76807;SDS011;65758;45.458;11.062;2024-03-02T09:22:45;2.30;;;1.30;;
76807;SDS011;65758;45.458;11.062;2024-03-02T09:25:14;4.10;;;1.60;;
76807;SDS011;65758;45.458;11.062;2024-03-02T09:27:42;2.80;;;1.00;;
76807;SDS011;65758;45.458;11.062;2024-03-02T09:30:10;1.10;;;1.00;;
76807;SDS011;65758;45.458;11.062;2024-03-02T09:32:37;3.70;;;1.20;;
76807;SDS011;65758;45.458;11.062;2024-03-02T09:35:04;3.10;;;1.20;;
76807;SDS011;65758;45.458;11.062;2024-03-02T09:37:31;2.70;;;1.30;;
76807;SDS011;65758;45.458;11.062;2024-03-02T09:39:58;3.20;;;1.50;;
76807;SDS011;65758;45.458;11.062;2024-03-02T09:42:25;2.70;;;1.30;;
76807;SDS011;65758;45.458;11.062;2024-03-02T09:44:53;2.70;;;1.40;;
76807;SDS011;65758;45.458;11.062;2024-03-02T09:47:19;1.80;;;1.30;;
76807;SDS011;65758;45.458;11.062;2024-03-02T09:49:47;2.50;;;1.30;;
76807;SDS011;65758;45.458;11.062;2024-03-02T09:52:14;5.70;;;1.20;;
76807;SDS011;65758;45.458;11.062;2024-03-02T09:54:41;2.30;;;1.10;;
76807;SDS011;65758;45.458;11.062;2024-03-02T09:57:08;1.80;;;1.30;;
76807;SDS011;65758;45.458;11.062;2024-03-02T09:59:36;2.10;;;1.20;;
76807;SDS011;65758;45.458;11.062;2024-03-02T10:02:03;1.70;;;1.20;;
76807;SDS011;65758;45.458;11.062;2024-03-02T10:04:30;4.90;;;2.30;;
76807;SDS011;65758;45.458;11.062;2024-03-02T10:09:43;3.50;;;1.20;;
76807;SDS011;65758;45.458;11.062;2024-03-02T10:12:14;3.60;;;1.30;;
76807;SDS011;65758;45.458;11.062;2024-03-02T10:14:42;2.70;;;1.30;;
76807;SDS011;65758;45.458;11.062;2024-03-02T10:17:13;3.70;;;1.00;;
76807;SDS011;65758;45.458;11.062;2024-03-02T10:19:42;1.90;;;1.40;;
76807;SDS011;65758;45.458;11.062;2024-03-02T10:22:09;3.40;;;1.40;;
76807;SDS011;65758;45.458;11.062;2024-03-02T10:24:44;3.80;;;1.30;;
76807;SDS011;65758;45.458;11.062;2024-03-02T10:27:22;3.30;;;1.20;;
76807;SDS011;65758;45.458;11.062;2024-03-02T10:29:50;3.40;;;1.10;;
76807;SDS011;65758;45.458;11.062;2024-03-02T10:32:16;3.00;;;1.20;;
76807;SDS011;65758;45.458;11.062;2024-03-02T10:34:46;3.20;;;1.30;;
76807;SDS011;65758;45.458;11.062;2024-03-02T10:37:14;1.10;;;1.00;;
76807;SDS011;65758;45.458;11.062;2024-03-02T10:39:41;1.60;;;1.10;;
76807;SDS011;65758;45.458;11.062;2024-03-02T10:42:09;2.20;;;1.20;;
76807;SDS011;65758;45.458;11.062;2024-03-02T10:44:36;2.40;;;1.00;;
76807;SDS011;65758;45.458;11.062;2024-03-02T10:47:04;2.60;;;1.50;;
76807;SDS011;65758;45.458;11.062;2024-03-02T10:49:32;2.90;;;1.20;;
76807;SDS011;65758;45.458;11.062;2024-03-02T10:52:00;1.40;;;1.10;;
76807;SDS011;65758;45.458;11.062;2024-03-02T10:54:27;1.60;;;1.10;;
76807;SDS011;65758;45.458;11.062;2024-03-02T10:57:03;3.00;;;1.40;;
76807;SDS011;65758;45.458;11.062;2024-03-02T10:59:35;3.20;;;1.20;;
76807;SDS011;65758;45.458;11.062;2024-03-02T11:02:05;2.90;;;1.20;;
76807;SDS011;65758;45.458;11.062;2024-03-02T11:04:35;1.90;;;1.20;;
76807;SDS011;65758;45.458;11.062;2024-03-02T11:07:07;2.40;;;1.20;;
76807;SDS011;65758;45.458;11.062;2024-03-02T11:09:40;3.50;;;1.90;;
76807;SDS011;65758;45.458;11.062;2024-03-02T11:12:31;4.60;;;1.60;;
76807;SDS011;65758;45.458;11.062;2024-03-02T11:15:07;3.90;;;1.70;;
76807;SDS011;65758;45.458;11.062;2024-03-02T11:17:39;1.60;;;1.40;;
76807;SDS011;65758;45.458;11.062;2024-03-02T11:20:07;3.10;;;1.30;;
76807;SDS011;65758;45.458;11.062;2024-03-02T11:22:35;5.60;;;1.60;;
76807;SDS011;65758;45.458;11.062;2024-03-02T11:25:03;3.40;;;1.50;;
76807;SDS011;65758;45.458;11.062;2024-03-02T11:30:59;2.20;;;1.50;;
76807;SDS011;65758;45.458;11.062;2024-03-02T11:33:05;2.00;;;1.30;;
76807;SDS011;65758;45.458;11.062;2024-03-02T11:35:42;2.00;;;1.70;;
76807;SDS011;65758;45.458;11.062;2024-03-02T11:38:10;2.70;;;1.40;;
76807;SDS011;65758;45.458;11.062;2024-03-02T11:40:38;2.80;;;1.40;;
76807;SDS011;65758;45.458;11.062;2024-03-02T11:43:06;5.50;;;1.70;;
76807;SDS011;65758;45.458;11.062;2024-03-02T11:45:37;3.40;;;1.60;;
76807;SDS011;65758;45.458;11.062;2024-03-02T11:48:10;1.80;;;1.50;;
76807;SDS011;65758;45.458;11.062;2024-03-02T11:50:42;3.00;;;1.70;;
76807;SDS011;65758;45.458;11.062;2024-03-02T11:53:13;4.00;;;1.60;;
76807;SDS011;65758;45.458;11.062;2024-03-02T11:55:41;2.30;;;2.00;;
76807;SDS011;65758;45.458;11.062;2024-03-02T11:58:13;4.00;;;2.00;;
76807;SDS011;65758;45.458;11.062;2024-03-02T12:00:41;2.70;;;1.80;;
76807;SDS011;65758;45.458;11.062;2024-03-02T12:03:08;1.60;;;1.50;;
76807;SDS011;65758;45.458;11.062;2024-03-02T12:05:38;2.40;;;1.70;;
76807;SDS011;65758;45.458;11.062;2024-03-02T12:08:06;1.90;;;1.60;;
76807;SDS011;65758;45.458;11.062;2024-03-02T12:10:34;3.00;;;2.10;;
76807;SDS011;65758;45.458;11.062;2024-03-02T12:13:04;4.10;;;2.20;;
76807;SDS011;65758;45.458;11.062;2024-03-02T12:15:34;3.00;;;2.10;;
76807;SDS011;65758;45.458;11.062;2024-03-02T12:18:06;2.20;;;2.00;;
76807;SDS011;65758;45.458;11.062;2024-03-02T12:20:33;5.00;;;2.30;;
76807;SDS011;65758;45.458;11.062;2024-03-02T12:23:01;3.30;;;2.60;;
76807;SDS011;65758;45.458;11.062;2024-03-02T12:25:31;2.30;;;2.00;;
76807;SDS011;65758;45.458;11.062;2024-03-02T12:28:00;4.50;;;2.30;;
76807;SDS011;65758;45.458;11.062;2024-03-02T12:30:30;3.70;;;2.30;;
76807;SDS011;65758;45.458;11.062;2024-03-02T12:32:58;3.50;;;2.10;;
76807;SDS011;65758;45.458;11.062;2024-03-02T12:35:25;4.50;;;2.40;;
76807;SDS011;65758;45.458;11.062;2024-03-02T12:37:52;3.00;;;2.40;;
76807;SDS011;65758;45.458;11.062;2024-03-02T12:40:20;5.40;;;2.50;;
76807;SDS011;65758;45.458;11.062;2024-03-02T12:42:49;4.40;;;2.50;;
76807;SDS011;65758;45.458;11.062;2024-03-02T12:45:18;4.00;;;2.10;;
76807;SDS011;65758;45.458;11.062;2024-03-02T12:47:51;4.70;;;2.40;;
76807;SDS011;65758;45.458;11.062;2024-03-02T12:50:19;5.30;;;2.50;;
76807;SDS011;65758;45.458;11.062;2024-03-02T12:52:53;3.40;;;2.40;;
76807;SDS011;65758;45.458;11.062;2024-03-02T12:55:22;3.10;;;2.10;;
76807;SDS011;65758;45.458;11.062;2024-03-02T12:57:50;2.70;;;2.20;;
76807;SDS011;65758;45.458;11.062;2024-03-02T13:00:19;3.80;;;2.80;;
76807;SDS011;65758;45.458;11.062;2024-03-02T13:02:48;2.90;;;2.50;;
76807;SDS011;65758;45.458;11.062;2024-03-02T13:05:16;3.00;;;2.30;;
76807;SDS011;65758;45.458;11.062;2024-03-02T13:07:43;3.00;;;2.10;;
76807;SDS011;65758;45.458;11.062;2024-03-02T13:10:12;4.50;;;2.30;;
76807;SDS011;65758;45.458;11.062;2024-03-02T13:12:39;3.60;;;2.50;;
76807;SDS011;65758;45.458;11.062;2024-03-02T13:15:06;3.00;;;2.80;;
76807;SDS011;65758;45.458;11.062;2024-03-02T13:17:36;4.40;;;2.00;;
76807;SDS011;65758;45.458;11.062;2024-03-02T13:20:05;3.50;;;2.20;;
76807;SDS011;65758;45.458;11.062;2024-03-02T13:22:37;2.40;;;2.20;;
76807;SDS011;65758;45.458;11.062;2024-03-02T13:25:05;2.70;;;1.60;;
76807;SDS011;65758;45.458;11.062;2024-03-02T13:27:33;2.00;;;1.70;;
76807;SDS011;65758;45.458;11.062;2024-03-02T13:30:01;2.10;;;1.70;;
76807;SDS011;65758;45.458;11.062;2024-03-02T13:32:30;4.00;;;1.70;;
76807;SDS011;65758;45.458;11.062;2024-03-02T13:34:58;1.50;;;1.40;;
76807;SDS011;65758;45.458;11.062;2024-03-02T13:37:24;2.00;;;1.70;;
76807;SDS011;65758;45.458;11.062;2024-03-02T13:39:51;1.80;;;1.70;;
76807;SDS011;65758;45.458;11.062;2024-03-02T13:42:18;1.50;;;1.40;;
76807;SDS011;65758;45.458;11.062;2024-03-02T13:44:45;1.60;;;1.50;;
76807;SDS011;65758;45.458;11.062;2024-03-02T13:47:14;3.00;;;2.10;;
76807;SDS011;65758;45.458;11.062;2024-03-02T13:49:41;1.60;;;1.30;;
76807;SDS011;65758;45.458;11.062;2024-03-02T13:52:14;2.30;;;1.60;;
76807;SDS011;65758;45.458;11.062;2024-03-02T13:54:43;3.70;;;1.90;;
76807;SDS011;65758;45.458;11.062;2024-03-02T13:57:11;2.40;;;1.50;;
76807;SDS011;65758;45.458;11.062;2024-03-02T13:59:39;2.40;;;1.60;;
76807;SDS011;65758;45.458;11.062;2024-03-02T14:02:07;1.80;;;1.70;;
76807;SDS011;65758;45.458;11.062;2024-03-02T14:04:37;2.10;;;1.60;;
76807;SDS011;65758;45.458;11.062;2024-03-02T14:07:05;2.10;;;1.40;;
76807;SDS011;65758;45.458;11.062;2024-03-02T14:09:35;3.30;;;1.60;;
76807;SDS011;65758;45.458;11.062;2024-03-02T14:12:04;1.50;;;1.40;;
76807;SDS011;65758;45.458;11.062;2024-03-02T14:14:32;3.20;;;1.70;;
76807;SDS011;65758;45.458;11.062;2024-03-02T14:16:59;4.00;;;1.70;;
76807;SDS011;65758;45.458;11.062;2024-03-02T14:19:30;1.70;;;1.60;;
76807;SDS011;65758;45.458;11.062;2024-03-02T14:21:58;1.40;;;1.30;;
76807;SDS011;65758;45.458;11.062;2024-03-02T14:24:44;1.40;;;1.30;;
76807;SDS011;65758;45.458;11.062;2024-03-02T14:27:11;2.10;;;1.50;;
76807;SDS011;65758;45.458;11.062;2024-03-02T14:29:58;2.30;;;1.80;;
76807;SDS011;65758;45.458;11.062;2024-03-02T14:32:25;2.10;;;1.70;;
76807;SDS011;65758;45.458;11.062;2024-03-02T14:34:51;3.50;;;2.00;;
76807;SDS011;65758;45.458;11.062;2024-03-02T14:37:18;2.60;;;1.70;;
76807;SDS011;65758;45.458;11.062;2024-03-02T14:39:45;2.10;;;1.60;;
76807;SDS011;65758;45.458;11.062;2024-03-02T14:42:12;3.40;;;2.00;;
76807;SDS011;65758;45.458;11.062;2024-03-02T14:44:39;4.10;;;2.10;;
76807;SDS011;65758;45.458;11.062;2024-03-02T14:47:06;2.70;;;2.10;;
76807;SDS011;65758;45.458;11.062;2024-03-02T14:49:33;3.60;;;2.40;;
76807;SDS011;65758;45.458;11.062;2024-03-02T14:52:03;2.30;;;2.10;;